createdAt,value
2022-10-25T00:02:20.575Z,3.87
2022-10-25T00:04:47.458Z,4.10
2022-10-25T00:07:14.068Z,4.53
2022-10-25T00:09:41.167Z,4.37
2022-10-25T00:12:08.081Z,3.30
2022-10-25T00:14:35.289Z,4.17
2022-10-25T00:17:01.763Z,4.03
2022-10-25T00:19:28.222Z,4.63
2022-10-25T00:21:54.783Z,3.53
2022-10-25T00:24:21.230Z,4.33
2022-10-25T00:26:47.709Z,4.00
2022-10-25T00:29:14.324Z,3.97
2022-10-25T00:31:40.990Z,3.20
2022-10-25T00:34:07.591Z,3.83
2022-10-25T00:36:34.042Z,3.43
2022-10-25T00:39:00.615Z,4.60
2022-10-25T00:41:29.690Z,3.60
2022-10-25T00:44:17.810Z,4.40
2022-10-25T00:46:45.178Z,3.30
2022-10-25T00:49:18.753Z,3.57
2022-10-25T00:51:56.354Z,3.40
2022-10-25T00:54:34.257Z,3.67
2022-10-25T00:57:10.131Z,3.03
2022-10-25T00:59:36.825Z,3.20
2022-10-25T01:02:03.383Z,3.00
2022-10-25T01:04:31.520Z,4.43
2022-10-25T01:06:58.586Z,2.70
2022-10-25T01:09:27.547Z,3.07
2022-10-25T01:11:54.298Z,2.90
2022-10-25T01:14:21.070Z,2.77
2022-10-25T01:16:56.666Z,2.53
2022-10-25T01:19:44.758Z,2.90
2022-10-25T01:22:23.318Z,3.03
2022-10-25T01:25:06.154Z,2.80
2022-10-25T01:27:57.723Z,2.47
2022-10-25T01:30:26.382Z,2.40
2022-10-25T01:33:22.258Z,2.77
2022-10-25T01:36:11.122Z,2.20
2022-10-25T01:38:49.789Z,2.53
2022-10-25T01:41:38.889Z,3.70
2022-10-25T01:44:22.277Z,2.70
2022-10-25T01:46:59.551Z,2.87
2022-10-25T01:49:30.223Z,2.50
2022-10-25T01:51:56.618Z,1.90
2022-10-25T01:54:25.249Z,2.20
2022-10-25T01:57:00.796Z,2.17
2022-10-25T02:00:00.384Z,2.90
2022-10-25T02:02:40.998Z,2.47
2022-10-25T02:05:20.991Z,2.67
2022-10-25T02:07:56.495Z,2.40
2022-10-25T02:10:27.669Z,2.40
2022-10-25T02:13:03.694Z,3.23
2022-10-25T02:15:48.868Z,2.07
2022-10-25T02:18:19.517Z,2.33
2022-10-25T02:20:47.575Z,2.13
2022-10-25T02:23:14.827Z,3.23
2022-10-25T02:25:42.085Z,1.90
2022-10-25T02:28:10.903Z,1.97
2022-10-25T02:30:38.715Z,2.47
2022-10-25T02:33:05.321Z,2.10
2022-10-25T02:35:31.974Z,2.40
2022-10-25T02:37:58.480Z,2.00
2022-10-25T02:40:25.244Z,2.27
2022-10-25T02:46:32.618Z,2.00
2022-10-25T02:48:59.147Z,2.30
2022-10-25T02:51:25.622Z,2.07
2022-10-25T02:53:52.111Z,2.33
2022-10-25T02:56:21.162Z,2.63
2022-10-25T02:58:49.249Z,2.37
2022-10-25T03:01:17.732Z,2.30
2022-10-25T03:03:45.143Z,2.67
2022-10-25T03:06:12.438Z,2.10
2022-10-25T03:08:40.373Z,2.57
2022-10-25T03:11:07.827Z,2.10
2022-10-25T03:13:35.055Z,2.63
2022-10-25T03:16:01.689Z,3.03
2022-10-25T03:18:28.178Z,2.33
2022-10-25T03:21:01.698Z,1.63
2022-10-25T03:23:28.827Z,2.30
2022-10-25T03:25:57.210Z,2.40
2022-10-25T03:28:24.281Z,2.73
2022-10-25T03:30:50.970Z,2.47
2022-10-25T03:33:17.814Z,2.00
2022-10-25T03:35:44.286Z,1.67
2022-10-25T03:38:10.966Z,2.47
2022-10-25T03:40:37.513Z,2.37
2022-10-25T03:43:04.046Z,1.97
2022-10-25T03:45:30.578Z,2.47
2022-10-25T03:47:57.019Z,2.13
2022-10-25T03:50:23.498Z,2.37
2022-10-25T03:52:49.959Z,2.63
2022-10-25T03:55:16.572Z,2.37
2022-10-25T03:57:43.136Z,2.23
2022-10-25T04:00:10.106Z,3.30
2022-10-25T04:02:36.586Z,3.03
2022-10-25T04:05:03.186Z,2.40
2022-10-25T04:07:29.669Z,2.40
2022-10-25T04:09:56.098Z,2.47
2022-10-25T04:12:22.577Z,2.43
2022-10-25T04:14:49.091Z,2.27
2022-10-25T04:17:15.615Z,2.90
2022-10-25T04:19:42.124Z,2.40
2022-10-25T04:22:08.755Z,3.13
2022-10-25T04:24:35.231Z,2.80
2022-10-25T04:27:01.700Z,2.93
2022-10-25T04:29:28.211Z,2.53
2022-10-25T04:31:54.688Z,2.90
2022-10-25T04:34:21.155Z,2.60
2022-10-25T04:36:47.932Z,3.17
2022-10-25T04:39:15.164Z,3.00
2022-10-25T04:41:41.713Z,2.70
2022-10-25T04:44:08.618Z,2.13
2022-10-25T04:46:35.098Z,3.10
2022-10-25T04:49:01.563Z,2.60
2022-10-25T04:51:28.030Z,2.47
2022-10-25T04:53:55.241Z,2.37
2022-10-25T04:56:22.357Z,2.60
2022-10-25T04:58:48.855Z,2.67
2022-10-25T05:01:17.533Z,2.40
2022-10-25T05:03:44.055Z,2.30
2022-10-25T05:06:14.319Z,2.40
2022-10-25T05:08:42.843Z,2.63
2022-10-25T05:11:10.660Z,2.43
2022-10-25T05:13:39.250Z,2.20
2022-10-25T05:16:06.458Z,2.70
2022-10-25T05:18:34.384Z,2.90
2022-10-25T05:21:06.745Z,2.60
2022-10-25T05:23:34.763Z,3.60
2022-10-25T05:26:10.123Z,2.87
2022-10-25T05:28:38.211Z,2.90
2022-10-25T05:33:40.952Z,2.53
2022-10-25T05:36:07.816Z,2.73
2022-10-25T05:38:37.042Z,3.57
2022-10-25T05:41:05.002Z,2.93
2022-10-25T05:43:31.668Z,3.00
2022-10-25T05:46:06.702Z,2.60
2022-10-25T05:48:34.253Z,2.70
2022-10-25T05:51:32.658Z,2.67
2022-10-25T05:54:04.746Z,3.03
2022-10-25T05:56:32.390Z,3.30
2022-10-25T05:59:02.545Z,3.20
2022-10-25T06:01:29.191Z,2.83
2022-10-25T06:03:55.831Z,2.90
2022-10-25T06:06:23.204Z,3.03
2022-10-25T06:08:49.867Z,3.00
2022-10-25T06:11:18.651Z,3.43
2022-10-25T06:13:45.684Z,2.90
2022-10-25T06:16:14.961Z,3.67
2022-10-25T06:18:42.096Z,3.27
2022-10-25T06:21:13.678Z,3.63
2022-10-25T06:23:40.943Z,3.70
2022-10-25T06:26:10.677Z,3.00
2022-10-25T06:28:37.754Z,3.10
2022-10-25T06:31:06.810Z,3.73
2022-10-25T06:33:33.887Z,3.40
2022-10-25T06:36:01.969Z,3.00
2022-10-25T06:38:29.328Z,3.20
2022-10-25T06:41:00.114Z,3.90
2022-10-25T06:43:27.033Z,3.30
2022-10-25T06:45:53.846Z,4.20
2022-10-25T06:48:20.845Z,3.43
2022-10-25T06:50:49.976Z,3.27
2022-10-25T06:53:18.621Z,3.93
2022-10-25T06:55:47.099Z,3.83
2022-10-25T06:58:13.601Z,3.70
2022-10-25T07:00:40.100Z,4.73
2022-10-25T07:03:06.524Z,3.70
2022-10-25T07:05:32.988Z,3.80
2022-10-25T07:07:59.461Z,3.90
2022-10-25T07:10:25.992Z,5.13
2022-10-25T07:12:52.440Z,4.30
2022-10-25T07:17:46.769Z,3.87
2022-10-25T07:20:13.390Z,5.10
2022-10-25T07:22:39.895Z,4.13
2022-10-25T07:25:06.523Z,4.00
2022-10-25T07:27:33.673Z,4.03
2022-10-25T07:30:00.153Z,4.07
2022-10-25T07:32:26.663Z,4.00
2022-10-25T07:34:53.174Z,3.20
2022-10-25T07:37:19.661Z,2.93
2022-10-25T07:39:46.307Z,3.47
2022-10-25T07:42:12.749Z,4.00
2022-10-25T07:44:39.227Z,3.50
2022-10-25T07:47:05.739Z,2.83
2022-10-25T07:49:32.175Z,3.00
2022-10-25T07:51:58.623Z,4.00
2022-10-25T07:54:25.069Z,3.77
2022-10-25T07:56:51.537Z,3.17
2022-10-25T07:59:18.073Z,3.03
2022-10-25T08:01:44.661Z,3.30
2022-10-25T08:04:11.074Z,3.07
2022-10-25T08:06:37.701Z,3.03
2022-10-25T08:09:14.237Z,3.90
2022-10-25T08:11:47.071Z,4.27
2022-10-25T08:14:13.686Z,2.50
2022-10-25T08:16:40.258Z,2.40
2022-10-25T08:19:06.940Z,2.20
2022-10-25T08:21:33.755Z,2.50
2022-10-25T08:24:00.672Z,2.67
2022-10-25T08:26:30.173Z,3.23
2022-10-25T08:28:58.405Z,2.33
2022-10-25T08:31:24.891Z,2.80
2022-10-25T08:33:51.304Z,3.00
2022-10-25T08:36:17.771Z,2.60
2022-10-25T08:38:44.251Z,2.20
2022-10-25T08:41:19.605Z,2.30
2022-10-25T08:44:03.044Z,2.70
2022-10-25T08:47:05.952Z,1.97
2022-10-25T08:50:02.348Z,2.83
2022-10-25T08:52:36.180Z,2.27
2022-10-25T08:55:05.891Z,2.73
2022-10-25T08:57:34.465Z,2.57
2022-10-25T09:00:07.259Z,2.70
2022-10-25T09:02:48.764Z,2.50
2022-10-25T09:05:47.317Z,2.40
2022-10-25T09:08:32.586Z,2.50
2022-10-25T09:10:59.041Z,2.23
2022-10-25T09:13:40.825Z,2.77
2022-10-25T09:16:36.630Z,2.77
2022-10-25T09:19:07.629Z,2.73
2022-10-25T09:21:44.616Z,3.33
2022-10-25T09:24:21.008Z,4.03
2022-10-25T09:26:59.979Z,2.97
2022-10-25T09:29:32.291Z,3.30
2022-10-25T09:32:00.027Z,2.33
2022-10-25T09:34:35.537Z,3.03
2022-10-25T09:37:30.070Z,2.53
2022-10-25T09:40:00.019Z,2.50
2022-10-25T09:42:40.190Z,2.40
2022-10-25T09:45:15.494Z,1.90
2022-10-25T09:47:58.030Z,2.40
2022-10-25T09:50:28.137Z,2.10
2022-10-25T09:53:09.762Z,3.10
2022-10-25T09:55:48.346Z,2.20
2022-10-25T09:58:21.364Z,2.10
2022-10-25T10:00:48.286Z,2.27
2022-10-25T10:03:15.083Z,2.00
2022-10-25T10:05:55.075Z,1.63
2022-10-25T10:08:21.939Z,2.17
2022-10-25T10:10:49.694Z,2.00
2022-10-25T10:13:31.406Z,2.33
2022-10-25T10:16:01.808Z,2.23
2022-10-25T10:18:33.218Z,3.07
2022-10-25T10:21:01.703Z,2.30
2022-10-25T10:23:31.030Z,2.80
2022-10-25T10:26:01.830Z,2.30
2022-10-25T10:28:28.318Z,2.50
2022-10-25T10:30:57.216Z,1.90
2022-10-25T10:33:26.586Z,2.00
2022-10-25T10:35:54.159Z,2.30
2022-10-25T10:38:28.199Z,2.40
2022-10-25T10:41:13.772Z,1.80
2022-10-25T10:43:40.618Z,1.93
2022-10-25T10:46:14.801Z,1.97
2022-10-25T10:48:44.017Z,2.80
2022-10-25T10:51:38.769Z,2.13
2022-10-25T10:54:20.482Z,1.97
2022-10-25T10:56:54.451Z,2.20
2022-10-25T10:59:33.146Z,1.80
2022-10-25T11:02:20.060Z,2.00
2022-10-25T11:04:48.596Z,2.13
2022-10-25T11:07:32.322Z,1.83
2022-10-25T11:10:17.147Z,2.10
2022-10-25T11:12:44.099Z,1.70
2022-10-25T11:15:14.581Z,1.90
2022-10-25T11:17:54.268Z,2.23
2022-10-25T11:20:34.308Z,2.47
2022-10-25T11:23:26.961Z,1.83
2022-10-25T11:25:59.350Z,1.73
2022-10-25T11:28:44.065Z,2.13
2022-10-25T11:31:20.137Z,2.07
2022-10-25T11:33:52.769Z,1.80
2022-10-25T11:36:24.986Z,1.90
2022-10-25T11:39:02.162Z,2.23
2022-10-25T11:41:37.602Z,2.23
2022-10-25T11:44:19.184Z,2.30
2022-10-25T11:46:51.620Z,1.57
2022-10-25T11:49:44.724Z,1.93
2022-10-25T11:52:39.166Z,1.90
2022-10-25T11:55:24.762Z,1.90
2022-10-25T11:58:04.283Z,1.90
2022-10-25T12:00:56.311Z,1.83
2022-10-25T12:03:42.935Z,2.10
2022-10-25T12:06:16.408Z,1.70
2022-10-25T12:08:46.990Z,1.40
2022-10-25T12:11:20.295Z,1.87
2022-10-25T12:13:50.479Z,2.10
2022-10-25T12:16:19.384Z,2.20
2022-10-25T12:19:00.695Z,1.83
2022-10-25T12:21:31.471Z,2.30
2022-10-25T12:24:00.316Z,1.60
2022-10-25T12:26:30.014Z,1.43
2022-10-25T12:28:59.994Z,1.90
2022-10-25T12:31:29.464Z,2.60
2022-10-25T12:34:03.798Z,1.93
2022-10-25T12:36:38.636Z,1.60
2022-10-25T12:39:14.036Z,1.60
2022-10-25T12:41:44.473Z,1.50
2022-10-25T12:44:29.675Z,1.50
2022-10-25T12:47:05.349Z,1.70
2022-10-25T12:49:57.277Z,1.97
2022-10-25T12:52:24.088Z,1.60
2022-10-25T12:55:09.193Z,1.90
2022-10-25T12:57:44.726Z,2.17
2022-10-25T13:03:22.797Z,2.10
2022-10-25T13:06:01.329Z,1.70
2022-10-25T13:08:29.583Z,2.00
2022-10-25T13:11:01.915Z,1.77
2022-10-25T13:13:30.954Z,1.73
2022-10-25T13:16:01.747Z,1.87
2022-10-25T13:18:34.220Z,2.13
2022-10-25T13:21:02.049Z,1.57
2022-10-25T13:23:44.204Z,1.67
2022-10-25T13:26:13.094Z,2.00
2022-10-25T13:28:51.037Z,1.57
2022-10-25T13:31:35.900Z,1.90
2022-10-25T13:34:14.597Z,1.60
2022-10-25T13:36:58.060Z,1.30
2022-10-25T13:39:32.151Z,1.60
2022-10-25T13:42:09.564Z,1.63
2022-10-25T13:44:54.338Z,1.63
2022-10-25T13:47:59.214Z,1.43
2022-10-25T13:50:33.349Z,2.00
2022-10-25T13:53:05.719Z,1.70
2022-10-25T13:55:44.772Z,1.77
2022-10-25T13:58:31.875Z,1.80
2022-10-25T14:01:17.604Z,1.83
2022-10-25T14:03:50.078Z,2.47
2022-10-25T14:06:23.966Z,1.50
2022-10-25T14:08:58.575Z,2.07
2022-10-25T14:11:34.082Z,1.80
2022-10-25T14:14:22.238Z,2.13
2022-10-25T14:17:23.164Z,3.00
2022-10-25T14:19:57.490Z,1.77
2022-10-25T14:22:37.096Z,2.33
2022-10-25T14:25:12.897Z,2.30
2022-10-25T14:27:39.353Z,2.20
2022-10-25T14:30:24.337Z,2.40
2022-10-25T14:33:20.245Z,2.17
2022-10-25T14:35:49.504Z,1.83
2022-10-25T14:38:26.863Z,1.93
2022-10-25T14:40:58.356Z,3.20
2022-10-25T14:43:28.355Z,2.07
2022-10-25T14:46:10.456Z,2.07
2022-10-25T14:48:37.180Z,3.30
2022-10-25T14:51:06.531Z,2.43
2022-10-25T14:53:33.354Z,2.20
2022-10-25T14:56:01.850Z,1.83
2022-10-25T14:58:32.897Z,5.67
2022-10-25T15:01:01.817Z,3.00
2022-10-25T15:03:29.770Z,3.97
2022-10-25T15:05:58.877Z,2.73
2022-10-25T15:08:27.228Z,3.00
2022-10-25T15:11:08.086Z,2.70
2022-10-25T15:13:42.911Z,2.40
2022-10-25T15:16:31.447Z,2.53
2022-10-25T15:19:06.164Z,3.13
2022-10-25T15:21:50.478Z,2.97
2022-10-25T15:24:46.494Z,3.10
2022-10-25T15:27:26.603Z,3.27
2022-10-25T15:29:53.519Z,2.80
2022-10-25T15:32:22.151Z,4.83
2022-10-25T15:34:53.287Z,4.97
2022-10-25T15:37:21.349Z,5.60
2022-10-25T15:39:49.524Z,3.57
2022-10-25T15:42:16.611Z,3.13
2022-10-25T15:44:43.449Z,2.87
2022-10-25T15:47:27.966Z,3.00
2022-10-25T15:49:54.633Z,3.50
2022-10-25T15:52:21.636Z,3.33
2022-10-25T15:54:49.255Z,2.90
2022-10-25T15:57:16.690Z,3.00
2022-10-25T15:59:43.209Z,2.97
2022-10-25T16:02:26.289Z,3.03
2022-10-25T16:04:52.725Z,3.60
2022-10-25T16:07:19.257Z,3.40
2022-10-25T16:09:45.792Z,3.37
2022-10-25T16:12:18.753Z,3.67
2022-10-25T16:14:45.538Z,3.73
2022-10-25T16:17:13.374Z,3.97
2022-10-25T16:19:39.877Z,3.50
2022-10-25T16:22:06.500Z,4.40
2022-10-25T16:24:32.970Z,4.40
2022-10-25T16:27:01.162Z,3.93
2022-10-25T16:29:27.820Z,4.83
2022-10-25T16:31:54.292Z,3.60
2022-10-25T16:34:21.335Z,3.83
2022-10-25T16:36:48.647Z,4.20
2022-10-25T16:39:15.455Z,3.90
2022-10-25T16:41:43.777Z,4.03
2022-10-25T16:44:18.375Z,4.00
2022-10-25T16:46:45.280Z,4.50
2022-10-25T16:49:12.072Z,3.80
2022-10-25T16:51:39.846Z,3.87
2022-10-25T16:54:06.880Z,4.50
2022-10-25T16:56:33.613Z,3.63
2022-10-25T16:59:00.551Z,3.57
2022-10-25T17:01:29.430Z,4.40
2022-10-25T17:03:56.035Z,4.23
2022-10-25T17:06:40.333Z,4.40
2022-10-25T17:09:08.084Z,3.60
2022-10-25T17:11:34.582Z,4.63
2022-10-25T17:14:01.028Z,4.57
2022-10-25T17:16:27.502Z,4.07
2022-10-25T17:18:53.982Z,4.87
2022-10-25T17:21:20.626Z,4.00
2022-10-25T17:23:47.067Z,5.43
2022-10-25T17:26:13.922Z,4.20
2022-10-25T17:28:43.962Z,4.60
2022-10-25T17:31:12.943Z,4.30
2022-10-25T17:33:40.422Z,6.93
2022-10-25T17:36:09.597Z,5.70
2022-10-25T17:38:36.138Z,5.23
2022-10-25T17:41:02.926Z,5.90
2022-10-25T17:43:29.369Z,6.57
2022-10-25T17:46:00.968Z,6.67
2022-10-25T17:48:27.468Z,5.73
2022-10-25T17:50:54.080Z,6.50
2022-10-25T17:53:20.550Z,6.10
2022-10-25T17:55:49.391Z,5.10
2022-10-25T17:58:15.899Z,5.00
2022-10-25T18:00:42.327Z,6.57
2022-10-25T18:03:08.840Z,6.03
2022-10-25T18:05:38.355Z,8.07
2022-10-25T18:08:05.008Z,8.50
2022-10-25T18:10:35.104Z,9.53
2022-10-25T18:13:01.596Z,10.97
2022-10-25T18:15:29.178Z,9.13
2022-10-25T18:17:55.642Z,7.93
2022-10-25T18:20:25.159Z,7.97
2022-10-25T18:22:53.021Z,7.07
2022-10-25T18:25:19.901Z,8.73
2022-10-25T18:27:47.153Z,8.37
2022-10-25T18:30:14.006Z,8.33
2022-10-25T18:32:40.508Z,8.10
2022-10-25T18:35:07.600Z,6.23
2022-10-25T18:37:34.254Z,7.30
2022-10-25T18:40:00.713Z,6.30
2022-10-25T18:42:27.161Z,8.70
2022-10-25T18:44:55.392Z,8.63
2022-10-25T18:47:21.871Z,7.90
2022-10-25T18:49:48.874Z,7.67
2022-10-25T18:52:15.339Z,8.77
2022-10-25T18:54:41.815Z,8.60
2022-10-25T18:57:09.199Z,7.40
2022-10-25T18:59:35.665Z,8.17
2022-10-25T19:02:02.307Z,9.27
2022-10-25T19:04:29.006Z,10.50
2022-10-25T19:06:55.591Z,9.00
2022-10-25T19:09:22.317Z,9.37
2022-10-25T19:11:48.802Z,10.70
2022-10-25T19:14:15.348Z,10.70
2022-10-25T19:16:43.828Z,10.03
2022-10-25T19:19:11.925Z,10.43
2022-10-25T19:21:38.796Z,10.67
2022-10-25T19:24:05.748Z,10.70
2022-10-25T19:26:33.570Z,9.00
2022-10-25T19:29:01.011Z,9.20
2022-10-25T19:31:28.144Z,9.47
2022-10-25T19:33:58.316Z,10.00
2022-10-25T19:36:24.988Z,10.60
2022-10-25T19:38:51.676Z,10.67
2022-10-25T19:41:20.396Z,11.43
2022-10-25T19:43:47.619Z,13.33
2022-10-25T19:46:14.481Z,14.33
2022-10-25T19:48:41.411Z,12.93
2022-10-25T19:51:10.342Z,12.23
2022-10-25T19:53:37.184Z,10.53
2022-10-25T19:56:09.307Z,10.97
2022-10-25T19:58:36.436Z,10.87
2022-10-25T20:01:09.388Z,12.07
2022-10-25T20:03:37.593Z,10.43
2022-10-25T20:06:07.354Z,11.43
2022-10-25T20:08:34.958Z,11.50
2022-10-25T20:11:02.208Z,10.60
2022-10-25T20:13:28.838Z,10.60
2022-10-25T20:15:55.825Z,9.73
2022-10-25T20:18:24.283Z,9.90
2022-10-25T20:20:53.822Z,11.00
2022-10-25T20:23:20.524Z,8.13
2022-10-25T20:25:46.987Z,8.97
2022-10-25T20:28:13.848Z,8.80
2022-10-25T20:30:40.962Z,8.87
2022-10-25T20:33:11.116Z,8.63
2022-10-25T20:35:38.888Z,10.20
2022-10-25T20:38:06.141Z,11.10
2022-10-25T20:40:33.802Z,10.47
2022-10-25T20:43:00.910Z,10.00
2022-10-25T20:45:28.843Z,11.20
2022-10-25T20:47:56.374Z,10.70
2022-10-25T20:50:23.752Z,9.80
2022-10-25T20:53:09.196Z,9.00
2022-10-25T20:55:36.753Z,8.57
2022-10-25T20:58:03.267Z,8.17
2022-10-25T21:00:29.789Z,8.37
2022-10-25T21:02:56.239Z,9.07
2022-10-25T21:05:22.701Z,7.90
2022-10-25T21:07:49.497Z,8.77
2022-10-25T21:10:16.272Z,8.43
2022-10-25T21:12:42.783Z,8.20
2022-10-25T21:15:11.962Z,7.50
2022-10-25T21:17:39.050Z,8.00
2022-10-25T21:20:06.340Z,7.57
2022-10-25T21:22:32.946Z,7.50
2022-10-25T21:24:59.665Z,6.20
2022-10-25T21:27:26.128Z,5.73
2022-10-25T21:29:52.593Z,6.30
2022-10-25T21:32:19.463Z,6.20
2022-10-25T21:34:46.067Z,7.60
2022-10-25T21:37:13.344Z,7.40
2022-10-25T21:39:39.947Z,6.40
2022-10-25T21:42:06.499Z,6.30
2022-10-25T21:44:32.927Z,6.50
2022-10-25T21:46:59.476Z,5.47
2022-10-25T21:49:25.895Z,5.37
2022-10-25T21:51:52.382Z,5.60
2022-10-25T21:54:21.350Z,6.20
2022-10-25T21:56:48.560Z,5.70
2022-10-25T21:59:15.065Z,5.60
2022-10-25T22:01:41.622Z,5.50
2022-10-25T22:04:08.555Z,6.30
2022-10-25T22:06:35.822Z,6.60
2022-10-25T22:09:02.382Z,7.07
2022-10-25T22:11:31.224Z,7.80
2022-10-25T22:13:59.816Z,8.57
2022-10-25T22:16:27.097Z,7.20
2022-10-25T22:18:57.672Z,7.33
2022-10-25T22:21:25.246Z,6.80
2022-10-25T22:23:51.740Z,7.27
2022-10-25T22:26:20.229Z,6.40
2022-10-25T22:28:47.209Z,6.30
2022-10-25T22:31:16.092Z,7.00
2022-10-25T22:33:43.412Z,6.87
2022-10-25T22:36:15.644Z,6.17
2022-10-25T22:38:42.741Z,7.00
2022-10-25T22:41:17.292Z,6.60
2022-10-25T22:43:44.442Z,6.47
2022-10-25T22:46:17.298Z,7.10
2022-10-25T22:48:44.621Z,6.23
2022-10-25T22:51:11.955Z,4.77
2022-10-25T22:53:39.510Z,5.70
2022-10-25T22:56:12.616Z,4.53
2022-10-25T22:58:40.250Z,5.10
2022-10-25T23:01:12.516Z,5.03
2022-10-25T23:03:44.110Z,5.27
2022-10-25T23:06:12.862Z,4.27
2022-10-25T23:08:39.752Z,5.20
2022-10-25T23:11:09.286Z,5.33
2022-10-25T23:13:36.262Z,5.53
2022-10-25T23:16:03.643Z,4.50
2022-10-25T23:18:30.293Z,5.10
2022-10-25T23:20:58.577Z,4.73
2022-10-25T23:23:25.537Z,4.10
2022-10-25T23:25:52.374Z,4.40
2022-10-25T23:28:19.041Z,4.47
2022-10-25T23:30:45.566Z,4.33
2022-10-25T23:33:13.131Z,5.27
2022-10-25T23:35:41.239Z,5.20
2022-10-25T23:38:13.246Z,4.13
2022-10-25T23:40:40.580Z,4.87
2022-10-25T23:43:07.203Z,4.07
2022-10-25T23:45:33.795Z,4.50
2022-10-25T23:48:00.288Z,3.90
2022-10-25T23:50:26.780Z,3.90
2022-10-25T23:52:53.336Z,4.50
2022-10-25T23:55:19.998Z,3.43
2022-10-25T23:57:46.446Z,3.83
